TAF CYBC 230740Z 2308/2320 30010KT P6SM BKN060
BECMG 2313/2315 30012G22KT BKN040 RMK FCST BASED ON AUTO OBS. NXT FCST BY 231400Z
From batch tds/tafs/production/2022/9/23/h07_m59_tafs.cache.xml
Issued (9 days ago)
Forecasts
2308/2313 30010KT P6SM BKN6000

---
fcst_time_to: '2022-09-23T13:00:00Z'
sky_condition:
- sky_cover: BKN
  cloud_base_ft_agl: '6000'
wind_speed_kt: '10'
fcst_time_from: '2022-09-23T08:00:00Z'
wind_dir_degrees: '300'
visibility_statute_mi: '6.21'

BECMG 2315/2320 30012G22KT P6SM BKN4000

---
fcst_time_to: '2022-09-23T20:00:00Z'
wind_gust_kt: '22'
sky_condition:
- sky_cover: BKN
  cloud_base_ft_agl: '4000'
time_becoming: '2022-09-23T15:00:00Z'
wind_speed_kt: '12'
fcst_time_from: '2022-09-23T13:00:00Z'
change_indicator: BECMG
wind_dir_degrees: '300'
visibility_statute_mi: '6.21'

talk